TimeEST,TemperatureF,Dew PointF,Humidity,Sea Level PressureIn,VisibilityMPH,Wind Direction,Wind SpeedMPH,Gust SpeedMPH,PrecipitationIn,Events,Conditions,WindDirDegrees,DateUTC
12:14 AM,28.9,20.7,71,30.33,10.0,SW,11.5,-,N/A,,Clear,220,2013-11-14 05:14:00
12:34 AM,29.3,20.7,70,30.33,10.0,SW,11.5,-,N/A,,Clear,220,2013-11-14 05:34:00
12:54 AM,28.9,20.7,71,30.32,10.0,SW,11.5,-,N/A,,Clear,230,2013-11-14 05:54:00
1:14 AM,28.9,20.8,72,30.32,10.0,SW,11.5,-,N/A,,Clear,230,2013-11-14 06:14:00
1:35 AM,28.9,20.7,71,30.31,10.0,SW,10.4,-,N/A,,Clear,230,2013-11-14 06:35:00
1:54 AM,28.9,20.7,71,30.30,10.0,SW,10.4,-,N/A,,Clear,220,2013-11-14 06:54:00
2:14 AM,28.6,20.5,72,30.30,10.0,SW,9.2,-,N/A,,Clear,220,2013-11-14 07:14:00
2:35 AM,28.8,20.3,71,30.30,10.0,SW,8.1,-,N/A,,Clear,220,2013-11-14 07:35:00
2:54 AM,28.4,20.3,72,30.30,10.0,SW,10.4,-,N/A,,Clear,230,2013-11-14 07:54:00
3:14 AM,28.8,20.3,71,30.30,10.0,SW,10.4,-,N/A,,Clear,230,2013-11-14 08:14:00
3:35 AM,28.9,20.3,70,30.30,10.0,SW,9.2,-,N/A,,Clear,220,2013-11-14 08:35:00
3:54 AM,28.9,20.1,70,30.29,10.0,SW,10.4,-,N/A,,Clear,230,2013-11-14 08:54:00
4:15 AM,29.3,20.1,69,30.29,10.0,SW,10.4,-,N/A,,Clear,230,2013-11-14 09:15:00
4:34 AM,28.9,19.9,69,30.29,10.0,SW,10.4,-,N/A,,Clear,230,2013-11-14 09:34:00
4:54 AM,28.0,19.9,72,30.29,10.0,SW,9.2,-,N/A,,Clear,230,2013-11-14 09:54:00
5:15 AM,27.5,19.8,73,30.29,10.0,SW,6.9,-,N/A,,Clear,220,2013-11-14 10:15:00
5:34 AM,27.5,19.9,73,30.29,10.0,SW,6.9,-,N/A,,Clear,220,2013-11-14 10:34:00
5:54 AM,27.5,20.1,74,30.29,10.0,SW,6.9,-,N/A,,Clear,220,2013-11-14 10:54:00
6:15 AM,27.1,19.9,74,30.28,10.0,SW,8.1,-,N/A,,Clear,230,2013-11-14 11:15:00
6:34 AM,27.1,20.1,75,30.28,10.0,SW,9.2,-,N/A,,Clear,230,2013-11-14 11:34:00
6:54 AM,27.7,20.1,73,30.28,10.0,SW,8.1,-,N/A,,Clear,230,2013-11-14 11:54:00
7:14 AM,27.5,19.6,72,30.29,10.0,SW,6.9,-,N/A,,Clear,220,2013-11-14 12:14:00
7:34 AM,27.9,20.1,73,30.29,10.0,SW,8.1,-,N/A,,Clear,220,2013-11-14 12:34:00
7:55 AM,28.9,20.1,70,30.29,10.0,SSW,9.2,-,N/A,,Clear,210,2013-11-14 12:55:00
8:14 AM,30.2,20.3,67,30.29,10.0,SSW,8.1,-,N/A,,Clear,210,2013-11-14 13:14:00
8:34 AM,31.3,21.0,66,30.29,10.0,SW,8.1,-,N/A,,Clear,220,2013-11-14 13:34:00
8:55 AM,32.0,22.1,67,30.29,10.0,SSW,8.1,-,N/A,,Clear,210,2013-11-14 13:55:00
9:14 AM,34.0,22.5,63,30.29,10.0,SW,11.5,-,N/A,,Clear,220,2013-11-14 14:14:00
9:34 AM,35.4,22.3,59,30.29,10.0,WSW,11.5,-,N/A,,Clear,240,2013-11-14 14:34:00
9:55 AM,36.5,22.5,57,30.28,10.0,WSW,12.7,-,N/A,,Clear,240,2013-11-14 14:55:00
10:14 AM,37.6,22.8,55,30.28,10.0,SW,13.8,19.6,N/A,,Clear,230,2013-11-14 15:14:00
10:34 AM,38.5,21.9,51,30.28,10.0,WSW,15.0,21.9,N/A,,Clear,240,2013-11-14 15:34:00
10:55 AM,40.1,22.1,49,30.28,10.0,WSW,15.0,-,N/A,,Clear,240,2013-11-14 15:55:00
11:14 AM,41.2,22.5,47,30.26,10.0,SW,16.1,-,N/A,,Clear,230,2013-11-14 16:14:00
11:34 AM,42.6,21.6,43,30.25,10.0,SW,16.1,-,N/A,,Clear,220,2013-11-14 16:34:00
11:55 AM,43.5,23.0,44,30.25,10.0,SW,17.3,20.7,N/A,,Clear,220,2013-11-14 16:55:00
12:14 PM,44.1,23.0,43,30.23,10.0,SW,13.8,-,N/A,,Clear,220,2013-11-14 17:14:00
12:34 PM,45.3,21.9,40,30.22,10.0,SW,15.0,-,N/A,,Clear,230,2013-11-14 17:34:00
12:54 PM,46.6,21.0,36,30.21,10.0,SW,18.4,-,N/A,,Clear,220,2013-11-14 17:54:00
1:14 PM,47.5,21.2,35,30.20,10.0,SW,16.1,23.0,N/A,,Clear,220,2013-11-14 18:14:00
1:35 PM,48.2,21.0,34,30.19,10.0,SSW,15.0,19.6,N/A,,Clear,210,2013-11-14 18:35:00
1:54 PM,48.2,20.1,33,30.19,10.0,SW,19.6,-,N/A,,Clear,220,2013-11-14 18:54:00
2:14 PM,49.3,19.9,31,30.18,10.0,SW,19.6,25.3,N/A,,Clear,220,2013-11-14 19:14:00
2:35 PM,49.1,20.3,32,30.18,10.0,SW,19.6,-,N/A,,Clear,220,2013-11-14 19:35:00
2:54 PM,49.3,19.6,31,30.17,10.0,SW,18.4,-,N/A,,Clear,220,2013-11-14 19:54:00
3:14 PM,49.3,18.9,30,30.17,10.0,SW,17.3,23.0,N/A,,Clear,220,2013-11-14 20:14:00
3:35 PM,50.0,19.9,31,30.17,10.0,SW,19.6,24.2,N/A,,Clear,220,2013-11-14 20:35:00
3:54 PM,49.5,18.9,30,30.16,10.0,SW,17.3,23.0,N/A,,Clear,220,2013-11-14 20:54:00
4:14 PM,49.3,18.1,29,30.16,10.0,SW,13.8,21.9,N/A,,Clear,220,2013-11-14 21:14:00
4:35 PM,48.2,19.4,32,30.15,10.0,SSW,15.0,-,N/A,,Clear,210,2013-11-14 21:35:00
4:54 PM,47.3,19.2,33,30.15,10.0,SSW,13.8,21.9,N/A,,Clear,210,2013-11-14 21:54:00
5:14 PM,45.1,21.0,38,30.15,10.0,SSW,12.7,-,N/A,,Clear,210,2013-11-14 22:14:00
5:35 PM,44.4,20.3,38,30.15,10.0,SSW,12.7,19.6,N/A,,Clear,200,2013-11-14 22:35:00
5:54 PM,43.7,20.1,39,30.14,10.0,SSW,11.5,-,N/A,,Clear,200,2013-11-14 22:54:00
6:14 PM,43.0,20.1,40,30.14,10.0,SSW,9.2,16.1,N/A,,Clear,200,2013-11-14 23:14:00
6:35 PM,42.8,20.5,41,30.14,10.0,SSW,12.7,-,N/A,,Clear,200,2013-11-14 23:35:00
6:54 PM,42.1,20.7,42,30.15,10.0,SSW,12.7,-,N/A,,Clear,210,2013-11-14 23:54:00
7:15 PM,41.4,21.4,45,30.15,10.0,SSW,12.7,-,N/A,,Clear,210,2013-11-15 00:15:00
7:34 PM,41.0,21.2,45,30.15,10.0,SSW,13.8,-,N/A,,Clear,200,2013-11-15 00:34:00
7:54 PM,40.5,21.2,46,30.15,10.0,SSW,13.8,-,N/A,,Clear,210,2013-11-15 00:54:00
8:15 PM,39.2,21.6,49,30.14,10.0,SSW,12.7,-,N/A,,Clear,200,2013-11-15 01:15:00
8:34 PM,38.7,21.7,51,30.14,10.0,SSW,10.4,-,N/A,,Clear,210,2013-11-15 01:34:00
8:55 PM,37.8,21.7,53,30.14,10.0,SSW,10.4,-,N/A,,Clear,210,2013-11-15 01:55:00
9:14 PM,36.7,21.4,54,30.15,10.0,SW,9.2,-,N/A,,Clear,220,2013-11-15 02:14:00
9:34 PM,36.9,21.6,54,30.15,10.0,SW,9.2,-,N/A,,Clear,220,2013-11-15 02:34:00
9:55 PM,38.1,21.2,51,30.14,10.0,SSW,11.5,-,N/A,,Clear,210,2013-11-15 02:55:00
10:15 PM,37.4,21.2,52,30.14,10.0,SW,9.2,-,N/A,,Clear,220,2013-11-15 03:15:00
10:34 PM,37.4,21.2,52,30.15,10.0,SSW,11.5,-,N/A,,Clear,210,2013-11-15 03:34:00
10:55 PM,37.2,21.2,52,30.15,10.0,SW,10.4,-,N/A,,Clear,220,2013-11-15 03:55:00
11:15 PM,37.0,21.2,53,30.14,10.0,SW,10.4,-,N/A,,Clear,220,2013-11-15 04:15:00
11:34 PM,36.9,21.2,53,30.14,10.0,SW,11.5,-,N/A,,Clear,220,2013-11-15 04:34:00
11:55 PM,37.4,21.0,52,30.13,10.0,SSW,12.7,-,N/A,,Clear,210,2013-11-15 04:55:00